Time;durP1;ratioP1;P1;durP2;ratioP2;P2;SDS_P1;SDS_P2;PMS_P1;PMS_P2;Temp;Humidity;BMP_temperature;BMP_pressure;BME280_temperature;BME280_humidity;BME280_pressure;Samples;Min_cycle;Max_cycle;Signal;HPM_P1;HPM_P2
2022/09/25 00:01:16;;;;;;;19.13;13.00;;;13.20;99.90;;;;;;2612747;54;20150;-73
2022/09/25 00:07:03;;;;;;;18.37;11.33;;;13.10;99.90;;;;;;2601489;54;20134;-73
2022/09/25 00:12:51;;;;;;;22.30;11.10;;;13.10;99.90;;;;;;2615168;39;20525;-72
2022/09/25 00:24:45;;;;;;;12.23;7.80;;;13.10;99.90;;;;;;2609013;54;20122;-73
2022/09/25 00:30:32;;;;;;;11.97;7.30;;;13.10;99.90;;;;;;2613605;54;20157;-72
2022/09/25 00:36:20;;;;;;;10.37;6.63;;;13.00;99.90;;;;;;2612798;54;20171;-73
2022/09/25 00:42:11;;;;;;;10.23;6.77;;;13.00;99.90;;;;;;2613390;54;20138;-72
2022/09/25 00:45:01;;;;;;;9.63;5.33;;;12.90;99.90;;;;;;2614108;47;20889;-72
2022/09/25 00:54:09;;;;;;;9.57;5.70;;;13.00;99.90;;;;;;2610602;54;20904;-71
2022/09/25 01:00:03;;;;;;;12.60;5.43;;;13.00;99.90;;;;;;2613095;54;20972;-72
2022/09/25 01:05:52;;;;;;;9.73;5.23;;;12.90;99.90;;;;;;2611820;54;20359;-73
2022/09/25 01:11:40;;;;;;;10.00;4.83;;;12.90;99.90;;;;;;2609986;54;20363;-73
2022/09/25 01:23:56;;;;;;;8.00;4.83;;;12.70;99.90;;;;;;2610942;54;20407;-72
2022/09/25 01:36:19;;;;;;;10.80;4.77;;;12.70;99.90;;;;;;2604077;54;20507;-73
2022/09/25 01:42:21;;;;;;;10.80;4.70;;;12.70;99.90;;;;;;2603181;39;20916;-72
2022/09/25 01:48:17;;;;;;;8.87;3.57;;;12.70;99.90;;;;;;2611241;54;20960;-71
2022/09/25 01:54:10;;;;;;;7.60;4.10;;;12.70;99.90;;;;;;2607987;54;20998;-76
2022/09/25 01:57:14;;;;;;;8.90;5.17;;;12.70;99.90;;;;;;2610515;46;20499;-72
2022/09/25 01:59:43;;;;;;;9.20;3.75;;;12.70;99.90;;;;;;2613298;39;20893;-72
2022/09/25 02:05:37;;;;;;;7.27;3.37;;;12.70;99.90;;;;;;2610313;39;20720;-72
2022/09/25 02:30:29;;;;;;;6.73;2.90;;;12.70;99.90;;;;;;2610977;54;20410;-73
2022/09/25 02:36:19;;;;;;;10.83;3.63;;;12.60;99.90;;;;;;2610598;54;20395;-71
2022/09/25 02:42:33;;;;;;;8.50;3.10;;;12.60;99.90;;;;;;2611781;54;20428;-71
2022/09/25 02:48:27;;;;;;;7.18;2.65;;;12.60;99.90;;;;;;2607184;54;20406;-70
2022/09/25 02:54:21;;;;;;;5.50;3.50;;;12.60;99.90;;;;;;2604870;54;20399;-71
2022/09/25 03:00:10;;;;;;;8.27;2.70;;;12.60;99.90;;;;;;2611152;54;20363;-72
2022/09/25 03:05:58;;;;;;;8.23;2.90;;;12.50;99.90;;;;;;2612901;54;20460;-72
2022/09/25 03:11:46;;;;;;;10.02;3.45;;;12.50;99.90;;;;;;2611176;54;20378;-73
2022/09/25 03:17:34;;;;;;;7.60;3.40;;;12.30;99.90;;;;;;2610897;54;20239;-72
2022/09/25 03:23:22;;;;;;;6.50;3.67;;;12.10;99.90;;;;;;2611490;54;20143;-74
2022/09/25 03:29:11;;;;;;;10.23;4.00;;;12.10;99.90;;;;;;2610153;54;20387;-73
2022/09/25 03:34:59;;;;;;;9.98;3.15;;;12.00;99.90;;;;;;2610489;54;20363;-72
2022/09/25 03:40:46;;;;;;;10.10;4.30;;;12.00;99.90;;;;;;2611814;54;20151;-72
2022/09/25 03:49:56;;;;;;;9.03;3.53;;;12.00;99.90;;;;;;2610494;54;20398;-72
2022/09/25 03:55:47;;;;;;;5.25;3.70;;;11.90;99.90;;;;;;2610304;54;20155;-72
2022/09/25 04:01:35;;;;;;;12.13;4.53;;;11.80;99.90;;;;;;2610653;54;20395;-73
2022/09/25 04:07:23;;;;;;;7.93;3.77;;;11.70;99.90;;;;;;2609756;54;20298;-72
2022/09/25 04:13:11;;;;;;;14.87;4.40;;;11.70;99.90;;;;;;2609958;46;20181;-72
2022/09/25 04:18:59;;;;;;;14.30;4.60;;;11.70;99.90;;;;;;2610981;54;20134;-72
2022/09/25 04:24:49;;;;;;;13.40;5.10;;;11.70;99.90;;;;;;2611064;46;20254;-72
2022/09/25 04:30:37;;;;;;;9.73;4.70;;;11.70;99.90;;;;;;2609588;54;20912;-71
2022/09/25 04:36:24;;;;;;;12.77;4.70;;;11.50;99.90;;;;;;2609206;54;20138;-73
2022/09/25 04:42:12;;;;;;;9.27;4.90;;;11.50;99.90;;;;;;2611946;54;20226;-72
2022/09/25 04:45:21;;;;;;;12.27;4.00;;;11.30;99.90;;;;;;2610828;39;21361;-72
2022/09/25 04:47:47;;;;;;;12.60;3.87;;;11.30;99.90;;;;;;2609921;39;20691;-71
2022/09/25 04:53:35;;;;;;;14.40;4.70;;;11.20;99.90;;;;;;2613828;54;20125;-73
2022/09/25 04:59:23;;;;;;;10.13;4.63;;;11.10;99.90;;;;;;2610663;54;20395;-73
2022/09/25 05:05:11;;;;;;;9.73;4.97;;;11.10;99.90;;;;;;2609655;54;20278;-73
2022/09/25 05:10:58;;;;;;;13.73;4.60;;;11.00;99.90;;;;;;2611093;54;20123;-73
2022/09/25 05:16:46;;;;;;;7.53;4.20;;;11.00;99.90;;;;;;2611269;54;20226;-72
2022/09/25 05:22:34;;;;;;;10.55;4.57;;;11.00;99.90;;;;;;2609963;54;20162;-71
2022/09/25 05:28:23;;;;;;;13.03;5.37;;;11.10;99.90;;;;;;2609859;54;20161;-72
2022/09/25 05:34:12;;;;;;;11.70;4.87;;;10.90;99.90;;;;;;2605006;54;20135;-74
2022/09/25 05:40:00;;;;;;;8.83;5.20;;;10.80;99.90;;;;;;2612584;54;20433;-71
2022/09/25 05:49:55;;;;;;;11.37;5.80;;;10.70;99.90;;;;;;2609735;54;20387;-71
2022/09/25 06:02:14;;;;;;;13.05;5.50;;;10.70;99.90;;;;;;2613979;39;20788;-72
2022/09/25 06:08:02;;;;;;;16.63;5.50;;;10.60;99.90;;;;;;2614344;54;20402;-72
2022/09/25 06:13:53;;;;;;;12.07;6.07;;;10.60;99.90;;;;;;2613798;54;20401;-73
2022/09/25 06:19:41;;;;;;;15.70;5.53;;;10.80;99.90;;;;;;2613498;54;20391;-71
2022/09/25 06:25:35;;;;;;;9.20;5.60;;;12.20;99.90;;;;;;2613857;54;20455;-73
2022/09/25 06:31:22;;;;;;;10.00;4.57;;;13.40;99.90;;;;;;2615629;54;20483;-72
2022/09/25 06:37:10;;;;;;;14.00;5.60;;;13.00;99.90;;;;;;2612677;54;20123;-72
2022/09/25 06:46:20;;;;;;;10.90;5.20;;;14.30;99.90;;;;;;2615507;54;20444;-71
2022/09/25 06:59:03;;;;;;;11.00;4.20;;;14.40;99.90;;;;;;2613657;54;20167;-72
2022/09/25 07:04:50;;;;;;;8.80;5.13;;;15.10;99.90;;;;;;2613098;54;20371;-72
2022/09/25 07:10:38;;;;;;;9.50;3.50;;;15.40;99.90;;;;;;2613626;54;20398;-73
2022/09/25 07:16:28;;;;;;;5.93;3.40;;;15.80;99.90;;;;;;2613366;39;20854;-71
2022/09/25 07:22:15;;;;;;;7.30;3.93;;;16.10;99.90;;;;;;2613603;54;20428;-74
2022/09/25 07:28:02;;;;;;;6.77;3.63;;;15.70;99.90;;;;;;2614132;54;20218;-71
2022/09/25 07:33:49;;;;;;;9.80;3.77;;;16.20;99.90;;;;;;2613193;54;20275;-74
2022/09/25 07:39:37;;;;;;;5.40;2.60;;;16.80;99.90;;;;;;2615451;54;20658;-71
2022/09/25 07:45:25;;;;;;;7.27;3.00;;;17.00;99.90;;;;;;2615466;39;20837;-73
2022/09/25 07:48:09;;;;;;;7.87;3.10;;;16.90;99.90;;;;;;2615719;54;20503;-72
2022/09/25 07:50:35;;;;;;;7.17;2.67;;;17.00;99.90;;;;;;2615529;54;20165;-73
2022/09/25 07:56:22;;;;;;;11.43;3.50;;;16.40;99.90;;;;;;2615637;54;20270;-71
2022/09/25 08:02:10;;;;;;;5.67;2.43;;;17.00;99.90;;;;;;2614971;54;20156;-72
2022/09/25 08:07:58;;;;;;;6.90;2.77;;;17.90;93.00;;;;;;2615753;54;20252;-71
2022/09/25 08:13:49;;;;;;;6.27;2.53;;;17.60;97.10;;;;;;2613985;54;20161;-72
2022/09/25 08:19:36;;;;;;;6.53;3.20;;;17.70;87.60;;;;;;2615141;54;20504;-72
2022/09/25 08:25:24;;;;;;;6.03;2.93;;;17.20;90.10;;;;;;2614982;54;20181;-73
2022/09/25 08:31:15;;;;;;;5.53;2.90;;;18.50;70.80;;;;;;2614389;54;20211;-72
2022/09/25 08:37:03;;;;;;;5.37;3.10;;;18.70;68.00;;;;;;2615443;54;21425;-71
2022/09/25 08:42:52;;;;;;;6.33;2.70;;;17.80;76.70;;;;;;2615858;54;20948;-73
2022/09/25 08:52:41;;;;;;;6.50;2.90;;;17.00;91.70;;;;;;2615432;54;20126;-73
2022/09/25 08:58:42;;;;;;;8.53;3.10;;;16.40;93.00;;;;;;2615482;54;20953;-72
2022/09/25 09:14:06;;;;;;;5.70;2.60;;;16.30;99.90;;;;;;2613280;54;20167;-72
2022/09/25 09:36:07;;;;;;;6.50;2.43;;;18.80;51.40;;;;;;2614968;54;20143;-73
2022/09/25 09:52:43;;;;;;;9.07;2.70;;;19.10;42.80;;;;;;2611747;54;20411;-73
2022/09/25 10:05:21;;;;;;;4.80;2.67;;;17.80;41.80;;;;;;2616044;54;20418;-73
2022/09/25 10:11:15;;;;;;;4.30;2.50;;;18.60;37.90;;;;;;2616233;54;20403;-73
2022/09/25 10:17:04;;;;;;;3.83;2.20;;;18.20;40.90;;;;;;2616118;54;20387;-73
2022/09/25 10:22:55;;;;;;;4.83;2.53;;;18.20;36.60;;;;;;2616279;54;20127;-73
2022/09/25 10:28:45;;;;;;;4.30;2.80;;;18.30;36.80;;;;;;2614850;54;20404;-73
2022/09/25 10:34:33;;;;;;;4.07;2.60;;;19.70;31.30;;;;;;2616522;46;20534;-74
2022/09/25 10:40:24;;;;;;;5.65;2.50;;;20.30;30.00;;;;;;2616723;39;20521;-73
2022/09/25 10:46:14;;;;;;;4.43;3.37;;;18.90;30.50;;;;;;2616089;54;20927;-73
2022/09/25 10:55:33;;;;;;;2.93;2.50;;;17.20;42.70;;;;;;2613521;54;20412;-74
2022/09/25 11:07:59;;;;;;;4.47;2.50;;;20.30;25.30;;;;;;2613331;54;20157;-74
2022/09/25 11:13:51;;;;;;;8.07;2.70;;;19.60;24.20;;;;;;2613561;39;20520;-73
2022/09/25 11:19:39;;;;;;;2.77;2.50;;;17.80;25.00;;;;;;2613654;54;20418;-72
2022/09/25 12:18:11;;;;;;;2.57;2.37;;;20.60;19.30;;;;;;2610740;54;20238;-74
2022/09/25 12:30:49;;;;;;;3.87;2.97;;;18.80;20.70;;;;;;2615731;54;20413;-73
2022/09/25 12:36:43;;;;;;;3.97;3.20;;;18.70;18.40;;;;;;2614269;54;20434;-73
2022/09/25 12:53:17;;;;;;;3.28;2.60;;;19.00;23.70;;;;;;2614993;39;20830;-73
2022/09/25 13:05:49;;;;;;;3.87;2.60;;;20.70;18.20;;;;;;2614688;46;20413;-73
2022/09/25 13:24:22;;;;;;;2.80;2.60;;;18.90;13.10;;;;;;2613678;54;20371;-73
2022/09/25 13:30:29;;;;;;;3.90;2.70;;;20.90;14.70;;;;;;2615394;54;20631;-73
2022/09/25 13:42:52;;;;;;;3.37;2.70;;;19.60;8.50;;;;;;2614833;54;20391;-73
2022/09/25 13:48:39;;;;;;;2.43;2.30;;;20.40;7.60;;;;;;2615987;39;20513;-72
2022/09/25 13:57:57;;;;;;;2.90;2.70;;;20.40;9.80;;;;;;2615154;54;20522;-73
2022/09/25 14:03:48;;;;;;;3.38;2.80;;;20.10;7.30;;;;;;2614432;54;20398;-73
2022/09/25 14:09:42;;;;;;;3.53;2.60;;;18.70;12.60;;;;;;2615242;54;20389;-73
2022/09/25 14:15:37;;;;;;;3.37;2.90;;;18.50;14.00;;;;;;2614450;54;20492;-73
2022/09/25 14:21:27;;;;;;;3.47;3.17;;;20.80;10.10;;;;;;2613756;54;20411;-72
2022/09/25 14:38:12;;;;;;;6.47;3.15;;;21.10;11.40;;;;;;2613169;54;20997;-74
2022/09/25 14:50:43;;;;;;;3.37;3.07;;;20.30;14.20;;;;;;2613927;54;20381;-72
2022/09/25 14:56:19;;;;;;;3.53;3.23;;;20.30;12.70;;;;;;2614590;54;20443;-72
2022/09/25 15:02:17;;;;;;;5.13;4.73;;;19.80;15.20;;;;;;2613023;46;20852;-72
2022/09/25 15:12:38;;;;;;;3.00;2.63;;;20.70;15.20;;;;;;2615247;54;20424;-72
2022/09/25 15:18:27;;;;;;;3.23;2.93;;;21.60;15.00;;;;;;2615947;54;20143;-73
2022/09/25 15:24:20;;;;;;;4.07;3.53;;;21.80;15.90;;;;;;2615813;54;20165;-72
2022/09/25 15:30:14;;;;;;;2.90;2.70;;;20.50;13.00;;;;;;2616250;54;20375;-73
2022/09/25 15:42:34;;;;;;;6.13;5.30;;;18.80;16.50;;;;;;2616550;46;20524;-72
2022/09/25 15:48:28;;;;;;;3.87;3.40;;;18.10;18.80;;;;;;2615992;31;20564;-73
2022/09/25 16:04:50;;;;;;;3.70;2.90;;;18.20;18.30;;;;;;2613343;54;20389;-73
2022/09/25 16:10:37;;;;;;;4.30;3.97;;;17.80;19.80;;;;;;2614354;54;20402;-72
2022/09/25 16:16:30;;;;;;;3.90;3.60;;;17.40;22.50;;;;;;2613575;54;20388;-71
2022/09/25 16:22:22;;;;;;;3.40;3.10;;;17.20;24.20;;;;;;2612702;54;20394;-72
2022/09/25 16:28:21;;;;;;;3.50;2.90;;;17.60;22.90;;;;;;2614340;54;20387;-74
2022/09/25 16:34:35;;;;;;;4.60;4.20;;;17.00;23.40;;;;;;2614815;54;20400;-72
2022/09/25 16:40:28;;;;;;;7.23;3.20;;;16.90;25.70;;;;;;2615729;54;20498;-72
2022/09/25 16:46:19;;;;;;;4.53;3.27;;;16.20;27.50;;;;;;2613368;54;20399;-74
2022/09/25 16:52:07;;;;;;;3.37;3.07;;;15.80;35.50;;;;;;2614817;54;20399;-73
2022/09/25 16:57:56;;;;;;;4.73;3.00;;;15.50;46.80;;;;;;2615607;54;20391;-73
2022/09/25 17:03:50;;;;;;;5.40;5.00;;;15.20;61.40;;;;;;2614066;54;20391;-72
2022/09/25 17:09:38;;;;;;;5.77;4.33;;;15.00;69.70;;;;;;2613121;54;20940;-73
2022/09/25 17:21:55;;;;;;;4.73;3.70;;;14.50;93.60;;;;;;2614099;54;20133;-73
2022/09/25 17:27:42;;;;;;;4.50;4.10;;;14.30;97.10;;;;;;2612753;54;20407;-73
2022/09/25 17:33:31;;;;;;;5.77;4.20;;;14.10;99.90;;;;;;2612709;54;20379;-74
2022/09/25 17:39:18;;;;;;;5.60;3.57;;;13.90;99.90;;;;;;2613075;54;20395;-72
2022/09/25 17:51:40;;;;;;;5.60;4.53;;;13.50;99.90;;;;;;2614075;54;20657;-73
2022/09/25 17:57:28;;;;;;;4.20;3.80;;;13.30;99.90;;;;;;2613808;54;20516;-72
2022/09/25 18:03:16;;;;;;;4.93;3.80;;;13.20;99.90;;;;;;2615134;54;20119;-73
2022/09/25 18:09:04;;;;;;;5.43;3.50;;;12.90;99.90;;;;;;2615420;54;20425;-73
2022/09/25 18:14:52;;;;;;;3.90;3.58;;;13.00;99.90;;;;;;2614864;54;20130;-76
2022/09/25 18:26:47;;;;;;;5.30;4.20;;;12.70;99.90;;;;;;2615996;54;20374;-72
2022/09/25 18:32:34;;;;;;;6.80;3.90;;;12.70;99.90;;;;;;2615183;54;20462;-73
2022/09/25 18:38:22;;;;;;;5.25;4.72;;;12.80;99.90;;;;;;2615831;54;20133;-73
2022/09/25 18:44:11;;;;;;;4.47;4.07;;;12.60;99.90;;;;;;2616336;39;20646;-72
2022/09/25 18:50:01;;;;;;;4.63;4.22;;;12.80;99.90;;;;;;2616091;39;20711;-74
2022/09/25 18:55:58;;;;;;;5.90;4.17;;;12.70;99.90;;;;;;2615069;54;20476;-74
2022/09/25 19:01:46;;;;;;;10.70;5.20;;;12.60;99.90;;;;;;2614143;54;20130;-73
2022/09/25 19:07:36;;;;;;;11.00;5.50;;;12.50;99.90;;;;;;2613520;54;20196;-73
2022/09/25 19:13:26;;;;;;;8.47;4.80;;;12.30;99.90;;;;;;2613945;54;20378;-73
2022/09/25 19:19:13;;;;;;;6.57;5.00;;;12.00;99.90;;;;;;2615819;39;20437;-73
2022/09/25 19:25:02;;;;;;;10.77;9.67;;;12.00;99.90;;;;;;2613297;54;20123;-75
2022/09/25 19:31:03;;;;;;;9.63;5.30;;;11.80;99.90;;;;;;2615893;31;20870;-73
2022/09/25 19:36:52;;;;;;;5.30;4.70;;;11.60;99.90;;;;;;2615487;54;20137;-72
2022/09/25 19:42:40;;;;;;;8.97;5.77;;;11.50;99.90;;;;;;2616270;54;20445;-73
2022/09/25 19:48:28;;;;;;;5.32;4.80;;;11.30;99.90;;;;;;2615878;54;20134;-73
2022/09/25 19:57:56;;;;;;;7.18;4.82;;;11.10;99.90;;;;;;2615318;54;20446;-72
2022/09/25 20:01:00;;;;;;;7.60;5.20;;;11.10;99.90;;;;;;2612957;54;20179;-73
2022/09/25 20:03:26;;;;;;;5.80;4.30;;;11.10;99.90;;;;;;2614055;54;20427;-72
2022/09/25 20:09:13;;;;;;;13.02;5.43;;;11.00;99.90;;;;;;2615098;54;20134;-74
2022/09/25 20:15:01;;;;;;;6.32;4.32;;;10.90;99.90;;;;;;2614284;54;20122;-74
2022/09/25 20:20:49;;;;;;;6.63;5.37;;;10.60;99.90;;;;;;2613886;54;20127;-73
2022/09/25 20:26:37;;;;;;;11.10;6.10;;;10.50;99.90;;;;;;2614441;54;20636;-73
2022/09/25 20:32:25;;;;;;;12.60;7.47;;;10.70;99.90;;;;;;2614967;54;20466;-73
2022/09/25 20:38:13;;;;;;;8.53;5.60;;;10.60;99.90;;;;;;2613302;54;20134;-72
2022/09/25 20:44:01;;;;;;;5.90;5.40;;;10.50;99.90;;;;;;2612506;54;20126;-73
2022/09/25 20:49:49;;;;;;;6.55;5.90;;;10.40;99.90;;;;;;2611914;54;20383;-73
2022/09/25 20:55:38;;;;;;;7.60;6.90;;;10.20;99.90;;;;;;2614866;54;20144;-73
2022/09/25 21:04:49;;;;;;;10.70;6.80;;;10.10;99.90;;;;;;2614380;54;20450;-73
2022/09/25 21:10:39;;;;;;;6.90;5.80;;;10.00;99.90;;;;;;2614803;54;20122;-74
2022/09/25 21:16:28;;;;;;;9.03;7.40;;;9.90;99.90;;;;;;2614893;54;20366;-72
2022/09/25 21:22:16;;;;;;;7.53;6.10;;;10.00;99.90;;;;;;2613282;54;20153;-73
2022/09/25 21:28:04;;;;;;;7.40;6.47;;;10.00;99.90;;;;;;2615307;39;20591;-73
2022/09/25 21:33:57;;;;;;;11.67;6.90;;;10.00;99.90;;;;;;2614541;54;20938;-72
2022/09/25 21:39:45;;;;;;;7.60;6.80;;;10.10;99.90;;;;;;2615169;54;20400;-73
2022/09/25 21:45:32;;;;;;;7.35;6.65;;;10.10;99.90;;;;;;2614021;54;20382;-73
2022/09/25 21:51:23;;;;;;;7.63;5.83;;;10.10;99.90;;;;;;2614717;54;20279;-73
2022/09/25 21:57:11;;;;;;;7.60;5.63;;;10.20;99.90;;;;;;2614799;54;20977;-71
2022/09/25 22:00:15;;;;;;;7.90;5.37;;;10.20;99.90;;;;;;2614451;46;20399;-73
2022/09/25 22:02:42;;;;;;;8.73;5.88;;;10.20;99.90;;;;;;2614362;39;20580;-73
2022/09/25 22:08:30;;;;;;;10.40;5.70;;;10.00;99.90;;;;;;2615186;54;20214;-72
2022/09/25 22:14:19;;;;;;;8.13;6.05;;;10.20;99.90;;;;;;2615765;54;20398;-73
2022/09/25 22:20:08;;;;;;;7.80;5.63;;;10.00;99.90;;;;;;2615250;54;20395;-73
2022/09/25 22:25:59;;;;;;;8.97;5.57;;;9.90;99.90;;;;;;2616024;54;20940;-73
2022/09/25 22:31:47;;;;;;;9.18;6.18;;;9.80;99.90;;;;;;2615661;39;20881;-73
2022/09/25 22:37:35;;;;;;;6.70;5.67;;;9.80;99.90;;;;;;2614827;54;20129;-73
2022/09/25 22:43:23;;;;;;;6.25;5.65;;;9.80;99.90;;;;;;2614363;54;20119;-73
2022/09/25 22:49:10;;;;;;;6.17;5.30;;;9.70;99.90;;;;;;2614581;54;20646;-72
2022/09/25 22:54:58;;;;;;;10.73;6.07;;;9.90;99.90;;;;;;2612428;54;20222;-73
2022/09/25 23:04:50;;;;;;;8.07;6.40;;;9.80;99.90;;;;;;2615869;54;20403;-74
2022/09/25 23:10:38;;;;;;;6.67;5.90;;;9.80;99.90;;;;;;2613611;54;20389;-73
2022/09/25 23:16:27;;;;;;;6.73;6.07;;;9.90;99.90;;;;;;2614656;54;20478;-73
2022/09/25 23:22:14;;;;;;;8.37;5.60;;;9.90;99.90;;;;;;2615310;54;20417;-73
2022/09/25 23:28:02;;;;;;;6.70;5.07;;;10.00;99.90;;;;;;2614245;54;20853;-73
2022/09/25 23:33:50;;;;;;;6.20;5.60;;;10.00;99.90;;;;;;2615144;54;20127;-72
2022/09/25 23:39:37;;;;;;;7.13;5.40;;;10.10;99.90;;;;;;2615990;54;20418;-73
2022/09/25 23:45:26;;;;;;;5.00;4.60;;;10.00;99.90;;;;;;2614031;39;20468;-72
2022/09/25 23:51:16;;;;;;;8.90;5.17;;;10.10;99.90;;;;;;2612264;54;20445;-73
2022/09/25 23:57:04;;;;;;;5.03;4.27;;;10.00;99.90;;;;;;2614784;54;20417;-72
